Time;durP1;ratioP1;P1;durP2;ratioP2;P2;SDS_P1;SDS_P2;PMS_P1;PMS_P2;Temp;Humidity;BMP_temperature;BMP_pressure;BME280_temperature;BME280_humidity;BME280_pressure;Samples;Min_cycle;Max_cycle;Signal;HPM_P1;HPM_P2
2022/05/05 00:01:38;;;;;;;;;;;12.90;99.90;;;;;;5116827;27;19908;-77
2022/05/05 00:04:04;;;;;;;;;;;13.00;99.90;;;;;;5134914;27;19908;-77
2022/05/05 00:06:30;;;;;;;;;;;12.90;99.90;;;;;;5135310;27;19929;-77
2022/05/05 00:08:55;;;;;;;;;;;12.90;99.90;;;;;;5116519;27;19908;-77
2022/05/05 00:14:23;;;;;;;;;;;13.00;99.90;;;;;;5134485;27;20292;-77
2022/05/05 00:16:49;;;;;;;;;;;13.00;99.90;;;;;;5134978;27;20053;-76
2022/05/05 00:19:15;;;;;;;;;;;13.10;99.90;;;;;;5135034;27;19907;-77
2022/05/05 00:21:41;;;;;;;;;;;13.00;99.90;;;;;;5134616;27;20265;-77
2022/05/05 00:24:07;;;;;;;;;;;13.00;99.90;;;;;;5134302;27;20356;-77
2022/05/05 00:26:32;;;;;;;;;;;13.00;99.90;;;;;;5134913;27;19912;-77
2022/05/05 00:28:58;;;;;;;;;;;13.10;99.90;;;;;;5115773;27;19908;-77
2022/05/05 00:31:23;;;;;;;;;;;13.10;99.90;;;;;;5134817;27;19939;-76
2022/05/05 00:33:49;;;;;;;;;;;13.10;99.90;;;;;;5134536;27;20245;-77
2022/05/05 00:36:15;;;;;;;;;;;13.10;99.90;;;;;;5134253;27;19949;-77
2022/05/05 00:38:41;;;;;;;;;;;13.10;99.90;;;;;;5134654;27;19911;-78
2022/05/05 00:41:06;;;;;;;;;;;13.00;99.90;;;;;;5134056;27;20253;-77
2022/05/05 00:43:33;;;;;;;;;;;13.00;99.90;;;;;;5135054;27;20341;-77
2022/05/05 00:45:59;;;;;;;;;;;13.00;99.90;;;;;;5134516;27;19931;-77
2022/05/05 00:48:26;;;;;;;;;;;13.00;99.90;;;;;;5116028;27;19912;-78
2022/05/05 00:50:51;;;;;;;;;;;12.90;99.90;;;;;;5134595;27;19911;-77
2022/05/05 00:53:17;;;;;;;;;;;13.00;99.90;;;;;;5134782;27;19923;-77
2022/05/05 00:55:43;;;;;;;;;;;12.90;99.90;;;;;;5134499;27;19915;-77
2022/05/05 00:58:09;;;;;;;;;;;12.80;99.90;;;;;;5133494;27;20006;-77
2022/05/05 01:00:35;;;;;;;;;;;12.70;99.90;;;;;;5134367;27;19911;-77
2022/05/05 01:03:00;;;;;;;;;;;12.70;99.90;;;;;;5133459;27;19912;-77
2022/05/05 01:05:29;;;;;;;;;;;12.70;99.90;;;;;;5134342;27;19914;-77
2022/05/05 01:07:56;;;;;;;;;;;12.70;99.90;;;;;;5133460;27;20366;-77
2022/05/05 01:10:22;;;;;;;;;;;12.60;99.90;;;;;;5134498;27;20373;-77
2022/05/05 01:12:47;;;;;;;;;;;12.60;99.90;;;;;;5133925;27;19936;-77
2022/05/05 01:15:13;;;;;;;;;;;12.60;99.90;;;;;;5133474;27;19968;-77
2022/05/05 01:17:38;;;;;;;;;;;12.60;99.90;;;;;;5133879;27;19907;-77
2022/05/05 01:20:14;;;;;;;;;;;12.50;99.90;;;;;;5133633;27;19934;-77
2022/05/05 01:22:40;;;;;;;;;;;12.50;99.90;;;;;;5133832;27;19914;-77
2022/05/05 01:30:34;;;;;;;;;;;12.60;99.90;;;;;;5133860;27;19960;-77
2022/05/05 01:32:59;;;;;;;;;;;12.60;99.90;;;;;;5132980;27;19919;-76
2022/05/05 01:35:25;;;;;;;;;;;12.50;99.90;;;;;;5134061;28;19911;-76
2022/05/05 01:37:51;;;;;;;;;;;12.40;99.90;;;;;;5133958;28;19964;-76
2022/05/05 01:40:16;;;;;;;;;;;12.40;99.90;;;;;;5133111;28;19994;-76
2022/05/05 01:42:42;;;;;;;;;;;12.40;99.90;;;;;;5133927;28;19907;-77
2022/05/05 01:45:08;;;;;;;;;;;12.40;99.90;;;;;;5132977;28;20345;-76
2022/05/05 01:47:33;;;;;;;;;;;12.30;99.90;;;;;;5133675;28;19907;-76
2022/05/05 01:50:00;;;;;;;;;;;12.30;99.90;;;;;;5114568;28;20040;-76
2022/05/05 01:52:25;;;;;;;;;;;12.40;99.90;;;;;;5133771;28;19948;-76
2022/05/05 01:54:51;;;;;;;;;;;12.30;99.90;;;;;;5133737;28;20011;-76
2022/05/05 01:57:17;;;;;;;;;;;12.20;99.90;;;;;;5114591;28;19924;-76
2022/05/05 01:59:42;;;;;;;;;;;12.20;99.90;;;;;;5133736;28;19907;-76
2022/05/05 02:02:08;;;;;;;;;;;12.20;99.90;;;;;;5114798;28;20006;-76
2022/05/05 02:04:33;;;;;;;;;;;12.20;99.90;;;;;;5115059;28;19908;-75
2022/05/05 02:06:59;;;;;;;;;;;12.30;99.90;;;;;;5114613;28;19914;-76
2022/05/05 02:09:24;;;;;;;;;;;12.30;99.90;;;;;;5133701;28;20411;-76
2022/05/05 02:11:53;;;;;;;;;;;12.30;99.90;;;;;;5132877;27;20226;-76
2022/05/05 02:14:21;;;;;;;;;;;12.40;99.90;;;;;;5136598;27;19919;-76
2022/05/05 02:16:47;;;;;;;;;;;12.40;99.90;;;;;;5137601;27;20014;-76
2022/05/05 02:19:13;;;;;;;;;;;12.40;99.90;;;;;;5136304;27;20340;-76
2022/05/05 02:21:38;;;;;;;;;;;12.40;99.90;;;;;;5137273;27;19907;-75
2022/05/05 02:24:04;;;;;;;;;;;12.40;99.90;;;;;;5136931;27;19939;-76
2022/05/05 02:26:30;;;;;;;;;;;12.50;99.90;;;;;;5118900;27;19914;-76
2022/05/05 02:28:55;;;;;;;;;;;12.50;99.90;;;;;;5137406;27;19907;-76
2022/05/05 02:31:21;;;;;;;;;;;12.30;99.90;;;;;;5136740;27;19915;-76
2022/05/05 02:33:47;;;;;;;;;;;12.30;99.90;;;;;;5136860;27;20360;-76
2022/05/05 02:38:56;;;;;;;;;;;12.20;99.90;;;;;;5137017;27;19968;-76
2022/05/05 02:41:22;;;;;;;;;;;12.10;99.90;;;;;;5136682;27;19998;-76
2022/05/05 02:43:47;;;;;;;;;;;12.10;99.90;;;;;;5137077;27;19908;-76
2022/05/05 02:46:13;;;;;;;;;;;12.10;99.90;;;;;;5136110;27;19914;-76
2022/05/05 02:48:39;;;;;;;;;;;12.10;99.90;;;;;;5136641;27;20275;-76
2022/05/05 02:51:04;;;;;;;;;;;12.00;99.90;;;;;;5136208;27;19907;-76
2022/05/05 02:56:16;;;;;;;;;;;11.90;99.90;;;;;;5135568;27;19918;-76
2022/05/05 02:58:42;;;;;;;;;;;11.90;99.90;;;;;;5136697;27;19915;-75
2022/05/05 03:01:08;;;;;;;;;;;11.90;99.90;;;;;;5135973;27;19995;-75
2022/05/05 03:03:34;;;;;;;;;;;11.90;99.90;;;;;;5136240;27;19907;-76
2022/05/05 03:06:00;;;;;;;;;;;11.80;99.90;;;;;;5136152;27;19960;-76
2022/05/05 03:08:25;;;;;;;;;;;11.80;99.90;;;;;;5135598;27;19911;-75
2022/05/05 03:10:51;;;;;;;;;;;11.70;99.90;;;;;;5136299;27;20253;-76
2022/05/05 03:13:17;;;;;;;;;;;11.80;99.90;;;;;;5135781;27;19911;-76
2022/05/05 03:15:43;;;;;;;;;;;11.80;99.90;;;;;;5118147;27;20380;-77
2022/05/05 03:18:09;;;;;;;;;;;11.90;99.90;;;;;;5135744;27;19950;-76
2022/05/05 03:20:35;;;;;;;;;;;11.90;99.90;;;;;;5118047;27;19943;-77
2022/05/05 03:23:00;;;;;;;;;;;11.90;99.90;;;;;;5136344;27;19936;-76
2022/05/05 03:25:26;;;;;;;;;;;11.80;99.90;;;;;;5134287;27;20002;-76
2022/05/05 03:27:51;;;;;;;;;;;11.70;99.90;;;;;;5136308;27;20000;-76
2022/05/05 03:30:17;;;;;;;;;;;11.70;99.90;;;;;;5135624;27;19961;-76
2022/05/05 03:32:43;;;;;;;;;;;11.60;99.90;;;;;;5136111;27;20267;-76
2022/05/05 03:35:09;;;;;;;;;;;11.60;99.90;;;;;;5135281;27;19977;-76
2022/05/05 03:37:34;;;;;;;;;;;11.60;99.90;;;;;;5136087;27;19929;-76
2022/05/05 03:40:00;;;;;;;;;;;11.60;99.90;;;;;;5136008;27;19908;-76
2022/05/05 03:42:26;;;;;;;;;;;11.60;99.90;;;;;;5135364;27;19911;-76
2022/05/05 03:44:51;;;;;;;;;;;11.60;99.90;;;;;;5135715;27;19911;-75
2022/05/05 03:47:17;;;;;;;;;;;11.70;99.90;;;;;;5135012;27;19907;-75
2022/05/05 03:49:42;;;;;;;;;;;11.60;99.90;;;;;;5135988;27;19914;-75
2022/05/05 03:52:08;;;;;;;;;;;11.60;99.90;;;;;;5116753;27;20309;-75
2022/05/05 03:54:33;;;;;;;;;;;11.60;99.90;;;;;;5135847;27;19918;-75
2022/05/05 03:56:59;;;;;;;;;;;11.50;99.90;;;;;;5135331;27;19987;-75
2022/05/05 03:59:25;;;;;;;;;;;11.50;99.90;;;;;;5135039;27;19922;-76
2022/05/05 04:01:50;;;;;;;;;;;11.50;99.90;;;;;;5135644;27;19973;-76
2022/05/05 04:04:16;;;;;;;;;;;11.50;99.90;;;;;;5135039;27;19908;-76
2022/05/05 04:06:42;;;;;;;;;;;11.50;99.90;;;;;;5135179;27;19912;-76
2022/05/05 04:09:07;;;;;;;;;;;11.50;99.90;;;;;;5134902;27;19969;-76
2022/05/05 04:11:34;;;;;;;;;;;11.50;99.90;;;;;;5134995;27;19907;-76
2022/05/05 04:13:59;;;;;;;;;;;11.50;99.90;;;;;;5135192;27;19969;-75
2022/05/05 04:16:25;;;;;;;;;;;11.50;99.90;;;;;;5134711;27;20478;-76
2022/05/05 04:18:50;;;;;;;;;;;11.60;99.90;;;;;;5135267;27;19935;-75
2022/05/05 04:21:16;;;;;;;;;;;11.50;99.90;;;;;;5134686;27;19914;-75
2022/05/05 04:23:42;;;;;;;;;;;11.50;99.90;;;;;;5135159;27;20268;-76
2022/05/05 04:26:09;;;;;;;;;;;11.50;99.90;;;;;;5134612;27;19980;-75
2022/05/05 04:28:35;;;;;;;;;;;11.50;99.90;;;;;;5134936;27;20352;-75
2022/05/05 04:31:00;;;;;;;;;;;11.50;99.90;;;;;;5134965;27;19907;-75
2022/05/05 04:33:26;;;;;;;;;;;11.50;99.90;;;;;;5133893;27;20491;-76
2022/05/05 04:35:51;;;;;;;;;;;11.50;99.90;;;;;;5134330;27;19915;-76
2022/05/05 04:38:17;;;;;;;;;;;11.50;99.90;;;;;;5133794;27;19994;-75
2022/05/05 04:40:43;;;;;;;;;;;11.40;99.90;;;;;;5134773;27;19933;-75
2022/05/05 04:43:08;;;;;;;;;;;11.40;99.90;;;;;;5134353;27;19937;-75
2022/05/05 04:45:34;;;;;;;;;;;11.50;99.90;;;;;;5134731;27;20352;-75
2022/05/05 04:47:59;;;;;;;;;;;11.50;99.90;;;;;;5134736;27;19907;-75
2022/05/05 04:50:25;;;;;;;;;;;11.50;99.90;;;;;;5134437;27;19916;-75
2022/05/05 04:52:51;;;;;;;;;;;11.60;99.90;;;;;;5134422;27;19907;-75
2022/05/05 04:55:16;;;;;;;;;;;11.60;99.90;;;;;;5134071;27;19915;-76
2022/05/05 04:57:42;;;;;;;;;;;11.60;99.90;;;;;;5134090;27;19920;-76
2022/05/05 05:00:08;;;;;;;;;;;11.70;99.90;;;;;;5134307;27;19908;-75
2022/05/05 05:02:34;;;;;;;;;;;11.80;99.90;;;;;;5115794;27;19915;-75
2022/05/05 05:05:00;;;;;;;;;;;11.80;99.90;;;;;;5134048;27;20369;-75
2022/05/05 05:07:25;;;;;;;;;;;11.80;99.90;;;;;;5133416;27;19918;-75
2022/05/05 05:09:51;;;;;;;;;;;11.70;99.90;;;;;;5134335;27;19956;-75
2022/05/05 05:12:16;;;;;;;;;;;11.80;99.90;;;;;;5133405;27;19907;-75
2022/05/05 05:14:42;;;;;;;;;;;11.80;99.90;;;;;;5134202;27;19954;-75
2022/05/05 05:17:07;;;;;;;;;;;11.80;99.90;;;;;;5134218;27;19908;-75
2022/05/05 05:19:33;;;;;;;;;;;11.80;99.90;;;;;;5133333;27;19908;-75
2022/05/05 05:21:59;;;;;;;;;;;11.90;99.90;;;;;;5134140;27;19941;-75
2022/05/05 05:24:24;;;;;;;;;;;11.90;99.90;;;;;;5133345;27;19907;-75
2022/05/05 05:26:50;;;;;;;;;;;11.90;99.90;;;;;;5115408;28;19911;-75
2022/05/05 05:29:16;;;;;;;;;;;11.90;99.90;;;;;;5132924;27;19915;-75
2022/05/05 05:31:41;;;;;;;;;;;11.90;99.90;;;;;;5133691;27;19918;-75
2022/05/05 05:34:07;;;;;;;;;;;11.90;99.90;;;;;;5133715;27;19923;-76
2022/05/05 05:36:32;;;;;;;;;;;11.90;99.90;;;;;;5132890;27;19907;-76
2022/05/05 05:38:58;;;;;;;;;;;11.90;99.90;;;;;;5133570;28;19911;-76
2022/05/05 05:41:23;;;;;;;;;;;11.90;99.90;;;;;;5132822;28;20374;-75
2022/05/05 05:43:49;;;;;;;;;;;12.00;99.90;;;;;;5133610;28;19914;-76
2022/05/05 05:46:15;;;;;;;;;;;12.00;99.90;;;;;;5133349;28;20280;-75
2022/05/05 05:48:40;;;;;;;;;;;12.00;99.90;;;;;;5136789;27;19907;-76
2022/05/05 05:51:06;;;;;;;;;;;12.00;99.90;;;;;;5137918;27;20302;-76
2022/05/05 05:53:31;;;;;;;;;;;12.00;99.90;;;;;;5137298;27;19919;-75
2022/05/05 05:55:57;;;;;;;;;;;12.10;99.90;;;;;;5137536;27;20443;-76
2022/05/05 05:58:23;;;;;;;;;;;12.10;99.90;;;;;;5137374;27;19949;-76
2022/05/05 06:00:48;;;;;;;;;;;12.20;99.90;;;;;;5137689;27;20375;-76
2022/05/05 06:05:59;;;;;;;;;;;12.20;99.90;;;;;;5137995;27;20481;-76
2022/05/05 06:08:24;;;;;;;;;;;12.30;99.90;;;;;;5136925;27;19907;-76
2022/05/05 06:10:50;;;;;;;;;;;12.40;99.90;;;;;;5137681;27;20383;-76
2022/05/05 06:13:15;;;;;;;;;;;12.50;99.90;;;;;;5118540;27;19955;-76
2022/05/05 06:15:41;;;;;;;;;;;12.40;99.90;;;;;;5137545;27;19912;-77
2022/05/05 06:18:07;;;;;;;;;;;12.50;99.90;;;;;;5137504;27;20352;-77
2022/05/05 06:20:32;;;;;;;;;;;12.60;99.90;;;;;;5136893;27;19968;-78
2022/05/05 06:22:58;;;;;;;;;;;12.60;99.90;;;;;;5137462;27;20341;-76
2022/05/05 06:25:24;;;;;;;;;;;12.60;99.90;;;;;;5137199;27;19914;-77
2022/05/05 06:27:50;;;;;;;;;;;12.70;99.90;;;;;;5137538;27;20372;-77
2022/05/05 06:30:17;;;;;;;;;;;12.60;99.90;;;;;;5136554;27;20326;-75
2022/05/05 06:32:43;;;;;;;;;;;12.60;99.90;;;;;;5136802;27;19953;-76
2022/05/05 06:35:09;;;;;;;;;;;12.70;99.90;;;;;;5136743;27;19931;-76
2022/05/05 06:37:35;;;;;;;;;;;12.70;99.90;;;;;;5136437;27;20423;-76
2022/05/05 06:40:03;;;;;;;;;;;12.80;99.90;;;;;;5136956;27;19915;-76
2022/05/05 06:42:29;;;;;;;;;;;12.80;99.90;;;;;;5136205;27;20363;-77
2022/05/05 06:44:55;;;;;;;;;;;12.90;99.90;;;;;;5136615;27;19908;-76
2022/05/05 06:47:20;;;;;;;;;;;13.00;99.90;;;;;;5147411;27;19953;-76
2022/05/05 06:49:46;;;;;;;;;;;13.00;99.90;;;;;;5147384;27;19907;-76
2022/05/05 06:52:11;;;;;;;;;;;13.10;99.90;;;;;;5154523;27;19911;-76
2022/05/05 06:54:37;;;;;;;;;;;13.20;99.90;;;;;;5156862;27;19923;-76
2022/05/05 06:57:03;;;;;;;;;;;13.40;99.90;;;;;;5138551;27;20401;-76
2022/05/05 06:59:29;;;;;;;;;;;13.50;99.90;;;;;;5156472;27;20009;-76
2022/05/05 07:01:56;;;;;;;;;;;13.60;99.90;;;;;;5158955;27;19915;-77
2022/05/05 07:07:07;;;;;;;;;;;13.80;99.90;;;;;;5157404;27;19914;-78
2022/05/05 07:12:34;;;;;;;;;;;13.90;99.90;;;;;;5071570;28;20015;-78
2022/05/05 07:14:59;;;;;;;;;;;13.70;99.90;;;;;;5124806;27;19916;-78
2022/05/05 07:17:26;;;;;;;;;;;13.70;99.90;;;;;;5135794;27;19911;-78
2022/05/05 07:19:52;;;;;;;;;;;13.70;99.90;;;;;;5136240;27;20363;-79
2022/05/05 07:22:17;;;;;;;;;;;13.70;99.90;;;;;;5136060;27;19914;-78
2022/05/05 07:24:43;;;;;;;;;;;13.70;99.90;;;;;;5135740;27;20233;-77
2022/05/05 07:27:10;;;;;;;;;;;13.80;99.90;;;;;;5135527;27;20221;-78
2022/05/05 07:29:37;;;;;;;;;;;13.70;99.90;;;;;;5135440;27;19950;-78
2022/05/05 07:32:03;;;;;;;;;;;13.70;99.90;;;;;;5136044;27;19946;-77
2022/05/05 07:34:29;;;;;;;;;;;13.80;99.90;;;;;;5135225;27;19954;-77
2022/05/05 07:36:55;;;;;;;;;;;13.80;99.90;;;;;;5135839;27;19930;-78
2022/05/05 07:39:20;;;;;;;;;;;14.00;99.90;;;;;;5135199;27;19930;-77
2022/05/05 07:41:46;;;;;;;;;;;14.10;99.90;;;;;;5117202;27;19907;-77
2022/05/05 07:44:11;;;;;;;;;;;14.30;99.90;;;;;;5135785;27;20370;-77
2022/05/05 07:46:37;;;;;;;;;;;14.30;99.90;;;;;;5135535;27;19915;-77
2022/05/05 07:49:04;;;;;;;;;;;14.50;99.90;;;;;;5135635;27;20405;-77
2022/05/05 07:51:30;;;;;;;;;;;14.40;99.90;;;;;;5135119;27;19933;-77
2022/05/05 07:56:40;;;;;;;;;;;14.60;99.90;;;;;;5134875;27;20019;-78
2022/05/05 07:59:06;;;;;;;;;;;14.70;99.90;;;;;;5135039;27;19955;-78
2022/05/05 08:01:32;;;;;;;;;;;14.90;99.90;;;;;;5134571;27;19919;-77
2022/05/05 08:03:58;;;;;;;;;;;15.00;99.90;;;;;;5134926;27;20260;-77
2022/05/05 08:06:23;;;;;;;;;;;15.20;99.90;;;;;;5134623;27;19907;-77
2022/05/05 08:08:49;;;;;;;;;;;15.30;99.90;;;;;;5134892;27;19915;-78
2022/05/05 08:11:14;;;;;;;;;;;15.30;99.90;;;;;;5115737;27;19933;-78
2022/05/05 08:13:40;;;;;;;;;;;15.20;99.90;;;;;;5134223;27;20006;-78
2022/05/05 08:16:05;;;;;;;;;;;15.30;99.90;;;;;;5135198;27;19907;-78
2022/05/05 08:18:31;;;;;;;;;;;15.40;99.90;;;;;;5134559;27;19950;-78
2022/05/05 08:20:57;;;;;;;;;;;15.40;99.90;;;;;;5139559;27;19908;-78
2022/05/05 08:23:23;;;;;;;;;;;15.40;99.90;;;;;;5138386;27;19911;-77
2022/05/05 08:28:36;;;;;;;;;;;15.50;99.90;;;;;;5145126;27;19914;-78
2022/05/05 08:31:01;;;;;;;;;;;15.30;99.90;;;;;;5154883;27;19918;-77
2022/05/05 08:33:27;;;;;;;;;;;15.30;99.90;;;;;;5154458;27;20267;-77
2022/05/05 08:35:54;;;;;;;;;;;15.40;99.90;;;;;;5155904;27;19914;-77
2022/05/05 08:38:19;;;;;;;;;;;15.50;99.90;;;;;;5155893;27;19907;-78
2022/05/05 08:40:45;;;;;;;;;;;15.50;99.90;;;;;;5154381;27;20374;-78
2022/05/05 08:43:11;;;;;;;;;;;15.50;99.90;;;;;;5148605;27;19912;-77
2022/05/05 08:45:37;;;;;;;;;;;15.60;99.90;;;;;;5148087;27;19942;-78
2022/05/05 08:48:07;;;;;;;;;;;15.60;99.90;;;;;;5154265;27;19907;-78
2022/05/05 08:50:33;;;;;;;;;;;15.60;99.90;;;;;;5154440;27;19961;-78
2022/05/05 08:53:00;;;;;;;;;;;15.70;99.90;;;;;;5155003;27;19907;-76
2022/05/05 08:55:26;;;;;;;;;;;15.70;99.90;;;;;;5136000;27;19907;-75
2022/05/05 08:57:52;;;;;;;;;;;15.80;99.90;;;;;;5154682;27;20293;-77
2022/05/05 09:00:17;;;;;;;;;;;15.80;99.90;;;;;;5148568;27;20013;-77
2022/05/05 09:02:43;;;;;;;;;;;15.90;99.90;;;;;;5133579;27;20489;-77
2022/05/05 09:05:09;;;;;;;;;;;15.90;99.90;;;;;;5132771;27;19915;-77
2022/05/05 09:07:48;;;;;;;;;;;15.80;99.90;;;;;;5133812;27;19947;-77
2022/05/05 09:10:15;;;;;;;;;;;15.80;99.90;;;;;;5133937;27;19908;-77
2022/05/05 09:12:41;;;;;;;;;;;15.50;99.90;;;;;;5133114;27;19908;-77
2022/05/05 09:15:10;;;;;;;;;;;15.50;99.90;;;;;;5133276;27;19938;-78
2022/05/05 09:17:36;;;;;;;;;;;15.30;99.90;;;;;;5132509;27;20364;-77
2022/05/05 09:20:03;;;;;;;;;;;15.20;99.90;;;;;;5134087;27;19919;-78
2022/05/05 09:22:29;;;;;;;;;;;15.10;99.90;;;;;;5122606;27;19911;-77
2022/05/05 09:24:57;;;;;;;;;;;15.10;99.90;;;;;;5133808;27;19967;-77
2022/05/05 09:27:33;;;;;;;;;;;15.20;99.90;;;;;;5139095;27;19922;-78
2022/05/05 09:30:06;;;;;;;;;;;15.30;99.90;;;;;;5126062;27;19907;-77
2022/05/05 09:32:36;;;;;;;;;;;15.50;99.90;;;;;;5135631;27;19919;-76
2022/05/05 09:35:05;;;;;;;;;;;15.80;99.90;;;;;;5123321;27;20343;-77
2022/05/05 09:37:31;;;;;;;;;;;16.10;99.90;;;;;;5143256;27;19908;-76
2022/05/05 09:39:57;;;;;;;;;;;16.30;99.90;;;;;;5149663;27;19907;-77
2022/05/05 09:42:43;;;;;;;;;;;16.40;99.90;;;;;;5153940;27;19907;-77
2022/05/05 09:45:12;;;;;;;;;;;16.50;99.90;;;;;;5154370;27;19907;-77
2022/05/05 09:47:38;;;;;;;;;;;16.60;99.90;;;;;;5153817;27;19907;-76
2022/05/05 09:50:04;;;;;;;;;;;16.70;99.90;;;;;;5154295;27;20267;-77
2022/05/05 09:58:03;;;;;;;;;;;16.90;99.90;;;;;;5153906;27;20064;-77
2022/05/05 10:05:46;;;;;;;;;;;17.00;99.90;;;;;;5153583;27;19928;-78
2022/05/05 10:08:16;;;;;;;;;;;17.30;99.90;;;;;;5154134;27;19915;-78
2022/05/05 10:10:45;;;;;;;;;;;17.40;99.90;;;;;;5153207;27;19911;-79
2022/05/05 10:13:12;;;;;;;;;;;17.50;99.90;;;;;;5153726;27;20272;-78
2022/05/05 10:15:38;;;;;;;;;;;17.70;99.90;;;;;;5153462;27;19914;-78
2022/05/05 10:18:03;;;;;;;;;;;17.70;99.90;;;;;;5153926;27;19907;-78
2022/05/05 10:20:30;;;;;;;;;;;17.70;99.90;;;;;;5134634;27;19908;-78
2022/05/05 10:23:05;;;;;;;;;;;17.70;99.90;;;;;;5153656;27;19907;-78
2022/05/05 10:25:32;;;;;;;;;;;17.60;99.90;;;;;;5153211;27;20305;-78
2022/05/05 10:27:59;;;;;;;;;;;17.40;99.90;;;;;;5153485;27;19907;-78
2022/05/05 10:30:34;;;;;;;;;;;17.50;99.90;;;;;;5153991;27;19911;-78
2022/05/05 10:33:08;;;;;;;;;;;17.60;99.90;;;;;;5153731;27;19929;-78
2022/05/05 10:35:47;;;;;;;;;;;17.50;99.90;;;;;;5156820;27;19907;-78
2022/05/05 10:38:49;;;;;;;;;;;17.50;99.90;;;;;;5157683;27;19907;-78
2022/05/05 10:41:30;;;;;;;;;;;17.50;99.90;;;;;;5072880;28;19908;-78
2022/05/05 10:44:13;;;;;;;;;;;17.50;99.90;;;;;;5148899;27;20006;-78
2022/05/05 10:46:51;;;;;;;;;;;17.60;99.90;;;;;;5156714;27;20272;-78
2022/05/05 10:49:36;;;;;;;;;;;17.60;99.90;;;;;;5157633;27;20040;-79
2022/05/05 10:52:07;;;;;;;;;;;17.50;99.90;;;;;;5157204;27;19911;-78
2022/05/05 10:54:33;;;;;;;;;;;17.50;99.90;;;;;;5156721;27;19966;-78
2022/05/05 10:57:19;;;;;;;;;;;17.50;99.90;;;;;;5157211;27;19962;-77
2022/05/05 11:00:03;;;;;;;;;;;17.60;99.90;;;;;;5157149;27;19998;-77
2022/05/05 11:02:28;;;;;;;;;;;18.00;99.90;;;;;;5157417;27;19922;-77
2022/05/05 11:05:14;;;;;;;;;;;18.30;99.90;;;;;;5156583;27;19999;-77
2022/05/05 11:07:39;;;;;;;;;;;18.30;99.90;;;;;;5156205;27;19907;-77
2022/05/05 11:10:06;;;;;;;;;;;18.30;99.90;;;;;;5157211;27;19914;-77
2022/05/05 11:12:32;;;;;;;;;;;18.20;99.90;;;;;;5156907;27;19935;-77
2022/05/05 11:23:44;;;;;;;;;;;18.20;99.90;;;;;;5156920;27;19949;-77
2022/05/05 11:26:13;;;;;;;;;;;18.10;99.90;;;;;;5156832;27;19929;-77
2022/05/05 11:28:39;;;;;;;;;;;18.40;99.90;;;;;;5156336;27;19907;-78
2022/05/05 11:31:14;;;;;;;;;;;18.40;99.90;;;;;;5156044;27;20316;-78
2022/05/05 11:33:40;;;;;;;;;;;18.40;99.90;;;;;;5155753;27;19962;-77
2022/05/05 11:36:06;;;;;;;;;;;18.20;99.90;;;;;;5138115;27;19907;-78
2022/05/05 11:38:32;;;;;;;;;;;18.30;99.90;;;;;;5156692;27;19912;-78
2022/05/05 11:40:58;;;;;;;;;;;18.20;99.90;;;;;;5155400;27;19948;-80
2022/05/05 11:46:08;;;;;;;;;;;18.00;99.90;;;;;;5145316;27;19990;-78
2022/05/05 11:48:34;;;;;;;;;;;17.90;99.90;;;;;;5145708;27;20061;-78
2022/05/05 11:51:06;;;;;;;;;;;17.90;99.90;;;;;;5139379;27;19907;-78
2022/05/05 11:53:31;;;;;;;;;;;18.00;99.90;;;;;;5118426;27;20396;-78
2022/05/05 11:55:57;;;;;;;;;;;18.20;99.90;;;;;;5134743;27;19932;-78
2022/05/05 12:03:57;;;;;;;;;;;18.40;99.90;;;;;;5143130;27;20529;-78
2022/05/05 12:06:24;;;;;;;;;;;18.60;99.90;;;;;;5144343;27;19912;-78
2022/05/05 12:08:50;;;;;;;;;;;18.60;99.90;;;;;;5146631;27;19907;-78
2022/05/05 12:11:15;;;;;;;;;;;18.60;99.90;;;;;;5144269;27;20359;-79
2022/05/05 12:13:41;;;;;;;;;;;18.80;99.90;;;;;;5145980;27;20382;-78
2022/05/05 12:16:08;;;;;;;;;;;18.90;99.90;;;;;;5137464;27;19972;-78
2022/05/05 12:18:33;;;;;;;;;;;18.90;99.90;;;;;;5135238;27;19915;-78
2022/05/05 12:20:59;;;;;;;;;;;19.00;99.90;;;;;;5134164;27;19911;-78
2022/05/05 12:23:26;;;;;;;;;;;19.00;99.90;;;;;;5134705;27;20391;-79
2022/05/05 12:25:52;;;;;;;;;;;18.80;99.90;;;;;;5133809;27;19912;-78
2022/05/05 12:28:18;;;;;;;;;;;18.70;99.90;;;;;;5134880;27;19915;-78
2022/05/05 12:30:44;;;;;;;;;;;18.60;99.90;;;;;;5134432;27;20363;-78
2022/05/05 12:33:15;;;;;;;;;;;18.50;99.90;;;;;;5136583;27;19907;-78
2022/05/05 12:35:41;;;;;;;;;;;18.30;99.90;;;;;;5143323;27;19911;-77
2022/05/05 12:38:08;;;;;;;;;;;18.20;99.90;;;;;;5127923;27;19952;-77
2022/05/05 12:40:35;;;;;;;;;;;18.10;99.90;;;;;;5155460;27;20336;-78
2022/05/05 12:43:08;;;;;;;;;;;18.10;99.90;;;;;;5136347;27;20321;-77
2022/05/05 12:45:34;;;;;;;;;;;18.10;99.90;;;;;;5155339;27;19908;-77
2022/05/05 12:48:12;;;;;;;;;;;18.10;99.90;;;;;;5154599;27;20007;-77
2022/05/05 12:50:40;;;;;;;;;;;18.20;99.90;;;;;;5155468;27;19907;-78
2022/05/05 13:01:33;;;;;;;;;;;18.70;99.90;;;;;;5155112;27;19991;-77
2022/05/05 13:04:05;;;;;;;;;;;18.80;99.90;;;;;;5135777;27;19954;-77
2022/05/05 13:06:31;;;;;;;;;;;19.00;99.90;;;;;;5155116;27;19965;-77
2022/05/05 13:08:57;;;;;;;;;;;18.90;99.90;;;;;;5154518;27;19907;-76
2022/05/05 13:11:23;;;;;;;;;;;18.90;99.90;;;;;;5154726;27;19939;-77
2022/05/05 13:13:49;;;;;;;;;;;18.90;99.90;;;;;;5153747;27;19967;-77
2022/05/05 13:16:15;;;;;;;;;;;18.90;99.90;;;;;;5154619;27;19907;-77
2022/05/05 13:18:41;;;;;;;;;;;18.90;99.90;;;;;;5154462;27;19988;-79
2022/05/05 13:21:06;;;;;;;;;;;18.80;99.90;;;;;;5153860;27;19934;-79
2022/05/05 13:23:32;;;;;;;;;;;18.90;99.90;;;;;;5154550;27;19922;-76
2022/05/05 13:25:57;;;;;;;;;;;18.90;99.90;;;;;;5153810;27;19907;-76
2022/05/05 13:28:23;;;;;;;;;;;18.90;99.90;;;;;;5154190;27;20328;-76
2022/05/05 13:30:49;;;;;;;;;;;18.90;99.90;;;;;;5153834;27;19907;-79
2022/05/05 13:33:14;;;;;;;;;;;18.90;99.90;;;;;;5150839;27;20371;-79
2022/05/05 13:35:40;;;;;;;;;;;19.00;99.90;;;;;;5142439;27;19911;-79
2022/05/05 13:38:06;;;;;;;;;;;18.90;99.90;;;;;;5144916;27;20348;-79
2022/05/05 13:40:32;;;;;;;;;;;19.00;99.90;;;;;;5136083;27;19922;-77
2022/05/05 13:42:57;;;;;;;;;;;19.00;99.90;;;;;;5153856;27;19907;-77
2022/05/05 13:45:23;;;;;;;;;;;19.10;99.90;;;;;;5154345;27;20352;-77
2022/05/05 13:47:50;;;;;;;;;;;19.10;99.90;;;;;;5153487;27;19911;-77
2022/05/05 13:50:16;;;;;;;;;;;19.00;99.90;;;;;;5154158;27;19907;-77
2022/05/05 13:52:43;;;;;;;;;;;19.10;99.90;;;;;;5154387;27;20299;-77
2022/05/05 13:55:09;;;;;;;;;;;19.20;99.90;;;;;;5153800;27;19919;-78
2022/05/05 13:57:36;;;;;;;;;;;19.20;99.90;;;;;;5154092;27;19919;-77
2022/05/05 14:00:02;;;;;;;;;;;19.10;99.90;;;;;;5153535;27;19911;-77
2022/05/05 14:02:28;;;;;;;;;;;19.00;99.90;;;;;;5154145;27;19990;-78
2022/05/05 14:04:54;;;;;;;;;;;19.10;99.90;;;;;;5153247;27;19931;-77
2022/05/05 14:12:10;;;;;;;;;;;19.10;99.90;;;;;;5154087;27;20010;-78
2022/05/05 14:12:51;;;;;;;;;;;19.10;99.90;;;;;;5114706;27;19932;-78
2022/05/05 14:15:16;;;;;;;;;;;19.20;99.90;;;;;;5158083;27;20002;-79
2022/05/05 14:17:42;;;;;;;;;;;19.30;99.90;;;;;;5139582;27;19911;-78
2022/05/05 14:20:08;;;;;;;;;;;19.40;99.90;;;;;;5157347;27;19911;-78
2022/05/05 14:22:33;;;;;;;;;;;19.20;99.90;;;;;;5158442;27;19937;-78
2022/05/05 14:24:59;;;;;;;;;;;19.10;99.90;;;;;;5157067;27;19907;-78
2022/05/05 14:27:24;;;;;;;;;;;19.00;99.90;;;;;;5158042;27;19918;-79
2022/05/05 14:29:50;;;;;;;;;;;19.10;99.90;;;;;;5138858;27;19907;-78
2022/05/05 14:32:15;;;;;;;;;;;19.20;99.90;;;;;;5157697;27;19911;-78
2022/05/05 14:34:41;;;;;;;;;;;19.20;99.90;;;;;;5157771;27;20047;-79
2022/05/05 14:37:09;;;;;;;;;;;19.20;99.90;;;;;;5149916;27;20524;-78
2022/05/05 14:39:34;;;;;;;;;;;19.30;99.90;;;;;;5147159;27;19960;-79
2022/05/05 14:42:00;;;;;;;;;;;19.50;99.90;;;;;;5121302;27;19908;-78
2022/05/05 14:44:28;;;;;;;;;;;19.70;99.90;;;;;;5136845;27;20015;-78
2022/05/05 14:46:53;;;;;;;;;;;19.70;99.90;;;;;;5117718;27;19950;-78
2022/05/05 14:49:19;;;;;;;;;;;19.80;99.90;;;;;;5143897;27;20376;-78
2022/05/05 14:51:45;;;;;;;;;;;19.70;99.90;;;;;;5138918;27;19952;-79
2022/05/05 14:54:10;;;;;;;;;;;19.70;99.90;;;;;;5144980;27;20360;-78
2022/05/05 14:56:36;;;;;;;;;;;19.70;99.90;;;;;;5147152;27;20371;-78
2022/05/05 14:59:03;;;;;;;;;;;19.60;99.90;;;;;;5136180;27;20351;-76
2022/05/05 15:01:29;;;;;;;;;;;19.50;99.90;;;;;;5136506;27;19907;-76
2022/05/05 15:03:54;;;;;;;;;;;19.50;99.90;;;;;;5117671;27;19908;-77
2022/05/05 15:06:20;;;;;;;;;;;19.40;99.90;;;;;;5136439;27;19915;-77
2022/05/05 15:08:46;;;;;;;;;;;19.40;99.90;;;;;;5136522;27;20260;-77
2022/05/05 15:11:11;;;;;;;;;;;19.30;99.90;;;;;;5136574;27;19923;-77
2022/05/05 15:13:37;;;;;;;;;;;19.20;99.90;;;;;;5142598;27;19915;-77
2022/05/05 15:16:03;;;;;;;;;;;19.10;99.90;;;;;;5145063;27;20264;-77
2022/05/05 15:18:29;;;;;;;;;;;19.00;99.90;;;;;;5138486;27;19972;-77
2022/05/05 15:20:54;;;;;;;;;;;19.00;99.90;;;;;;5135367;27;19911;-78